< < Back
Terminal Aerodrome Forecast


Current Version              Previous Versions:   1  2  3  4  5  6  7  8  9  

Terminal Aerodrome Forecast

774
FTUS42 KFFC 242323
TAFMCN
TAF
KMCN 242323Z 2500/2524 25005KT P6SM FEW060 SCT250
     FM251400 29005KT P6SM FEW070 BKN250
     FM251800 25006KT P6SM BKN050 PROB30 2518/2524 5SM TSRA BR
      BKN023CB=

Latest METAR

462
SAUS80 KWBC 250700 RRE
MTRMCN
METAR KMCN 250753Z AUTO 00000KT 10SM SCT070 25/21 A3002 RMK AO2 SLP158
T02500206 TSNO


USA.gov is the U.S. government's official web portal to all federal, state and local government web resources and services.